sensor_id;sensor_type;location;lat;lon;timestamp;P1;durP1;ratioP1;P2;durP2;ratioP2
25905;SDS011;13713;52.552;13.204;2023-02-18T00:01:54;16.38;;;5.85;;
25905;SDS011;13713;52.552;13.204;2023-02-18T00:04:20;11.43;;;5.47;;
25905;SDS011;13713;52.552;13.204;2023-02-18T00:06:46;12.20;;;5.70;;
25905;SDS011;13713;52.552;13.204;2023-02-18T00:09:12;13.95;;;6.05;;
25905;SDS011;13713;52.552;13.204;2023-02-18T00:11:38;11.88;;;5.65;;
25905;SDS011;13713;52.552;13.204;2023-02-18T00:14:05;13.30;;;5.35;;
25905;SDS011;13713;52.552;13.204;2023-02-18T00:16:32;15.73;;;6.80;;
25905;SDS011;13713;52.552;13.204;2023-02-18T00:18:59;14.00;;;5.65;;
25905;SDS011;13713;52.552;13.204;2023-02-18T00:21:27;12.20;;;5.50;;
25905;SDS011;13713;52.552;13.204;2023-02-18T00:23:54;15.15;;;5.38;;
25905;SDS011;13713;52.552;13.204;2023-02-18T00:26:19;13.57;;;5.85;;
25905;SDS011;13713;52.552;13.204;2023-02-18T00:28:46;14.77;;;5.53;;
25905;SDS011;13713;52.552;13.204;2023-02-18T00:31:13;12.05;;;4.95;;
25905;SDS011;13713;52.552;13.204;2023-02-18T00:33:41;13.05;;;5.20;;
25905;SDS011;13713;52.552;13.204;2023-02-18T00:36:08;13.40;;;5.40;;
25905;SDS011;13713;52.552;13.204;2023-02-18T00:38:35;13.07;;;5.28;;
25905;SDS011;13713;52.552;13.204;2023-02-18T00:41:01;12.20;;;4.97;;
25905;SDS011;13713;52.552;13.204;2023-02-18T00:43:28;14.10;;;5.32;;
25905;SDS011;13713;52.552;13.204;2023-02-18T00:45:54;11.77;;;5.30;;
25905;SDS011;13713;52.552;13.204;2023-02-18T00:48:20;16.42;;;5.80;;
25905;SDS011;13713;52.552;13.204;2023-02-18T00:50:46;14.77;;;5.32;;
25905;SDS011;13713;52.552;13.204;2023-02-18T00:53:12;12.93;;;5.32;;
25905;SDS011;13713;52.552;13.204;2023-02-18T00:55:41;15.27;;;5.18;;
25905;SDS011;13713;52.552;13.204;2023-02-18T00:58:08;11.05;;;4.68;;
25905;SDS011;13713;52.552;13.204;2023-02-18T01:00:35;16.50;;;5.70;;
25905;SDS011;13713;52.552;13.204;2023-02-18T01:03:02;12.35;;;5.55;;
25905;SDS011;13713;52.552;13.204;2023-02-18T01:05:30;12.70;;;5.25;;
25905;SDS011;13713;52.552;13.204;2023-02-18T01:07:56;12.95;;;5.05;;
25905;SDS011;13713;52.552;13.204;2023-02-18T01:10:22;11.65;;;5.13;;
25905;SDS011;13713;52.552;13.204;2023-02-18T01:12:48;11.10;;;4.95;;
25905;SDS011;13713;52.552;13.204;2023-02-18T01:15:14;10.70;;;4.95;;
25905;SDS011;13713;52.552;13.204;2023-02-18T01:17:41;13.98;;;5.40;;
25905;SDS011;13713;52.552;13.204;2023-02-18T01:20:07;14.05;;;4.65;;
25905;SDS011;13713;52.552;13.204;2023-02-18T01:22:34;10.77;;;4.57;;
25905;SDS011;13713;52.552;13.204;2023-02-18T01:24:59;13.25;;;4.68;;
25905;SDS011;13713;52.552;13.204;2023-02-18T01:27:25;15.38;;;4.90;;
25905;SDS011;13713;52.552;13.204;2023-02-18T01:29:51;14.75;;;5.25;;
25905;SDS011;13713;52.552;13.204;2023-02-18T01:32:16;10.82;;;4.63;;
25905;SDS011;13713;52.552;13.204;2023-02-18T01:34:42;11.15;;;4.40;;
25905;SDS011;13713;52.552;13.204;2023-02-18T01:37:08;10.82;;;4.53;;
25905;SDS011;13713;52.552;13.204;2023-02-18T01:39:34;14.73;;;4.93;;
25905;SDS011;13713;52.552;13.204;2023-02-18T01:42:00;13.00;;;5.65;;
25905;SDS011;13713;52.552;13.204;2023-02-18T01:44:26;9.98;;;4.55;;
25905;SDS011;13713;52.552;13.204;2023-02-18T01:46:53;12.80;;;4.47;;
25905;SDS011;13713;52.552;13.204;2023-02-18T01:49:26;11.98;;;4.55;;
25905;SDS011;13713;52.552;13.204;2023-02-18T01:52:02;12.73;;;4.65;;
25905;SDS011;13713;52.552;13.204;2023-02-18T01:54:39;10.98;;;3.90;;
25905;SDS011;13713;52.552;13.204;2023-02-18T01:57:09;10.90;;;4.28;;
25905;SDS011;13713;52.552;13.204;2023-02-18T02:02:24;9.93;;;4.50;;
25905;SDS011;13713;52.552;13.204;2023-02-18T02:04:52;9.80;;;3.85;;
25905;SDS011;13713;52.552;13.204;2023-02-18T02:07:19;9.68;;;4.03;;
25905;SDS011;13713;52.552;13.204;2023-02-18T02:09:47;11.85;;;4.65;;
25905;SDS011;13713;52.552;13.204;2023-02-18T02:37:33;11.48;;;4.40;;
25905;SDS011;13713;52.552;13.204;2023-02-18T02:40:37;8.05;;;3.75;;
25905;SDS011;13713;52.552;13.204;2023-02-18T02:43:22;12.85;;;4.20;;
25905;SDS011;13713;52.552;13.204;2023-02-18T02:46:08;13.32;;;3.63;;
25905;SDS011;13713;52.552;13.204;2023-02-18T02:48:57;14.50;;;4.10;;
25905;SDS011;13713;52.552;13.204;2023-02-18T02:54:08;11.88;;;4.75;;
25905;SDS011;13713;52.552;13.204;2023-02-18T02:56:45;10.45;;;3.83;;
25905;SDS011;13713;52.552;13.204;2023-02-18T02:59:14;9.90;;;3.75;;
25905;SDS011;13713;52.552;13.204;2023-02-18T03:02:08;10.32;;;3.70;;
25905;SDS011;13713;52.552;13.204;2023-02-18T03:12:35;8.88;;;3.53;;
25905;SDS011;13713;52.552;13.204;2023-02-18T03:15:30;12.95;;;3.60;;
25905;SDS011;13713;52.552;13.204;2023-02-18T03:18:42;10.50;;;3.75;;
25905;SDS011;13713;52.552;13.204;2023-02-18T03:24:02;8.95;;;3.70;;
25905;SDS011;13713;52.552;13.204;2023-02-18T03:26:31;14.48;;;3.13;;
25905;SDS011;13713;52.552;13.204;2023-02-18T03:29:02;11.80;;;3.60;;
25905;SDS011;13713;52.552;13.204;2023-02-18T03:31:30;12.45;;;3.38;;
25905;SDS011;13713;52.552;13.204;2023-02-18T03:34:05;11.70;;;3.83;;
25905;SDS011;13713;52.552;13.204;2023-02-18T03:36:36;10.98;;;3.38;;
25905;SDS011;13713;52.552;13.204;2023-02-18T03:39:03;11.13;;;3.55;;
25905;SDS011;13713;52.552;13.204;2023-02-18T03:41:34;7.40;;;3.00;;
25905;SDS011;13713;52.552;13.204;2023-02-18T03:44:03;13.93;;;3.83;;
25905;SDS011;13713;52.552;13.204;2023-02-18T03:46:32;9.32;;;3.35;;
25905;SDS011;13713;52.552;13.204;2023-02-18T03:48:59;11.00;;;3.05;;
25905;SDS011;13713;52.552;13.204;2023-02-18T03:51:25;7.72;;;3.30;;
25905;SDS011;13713;52.552;13.204;2023-02-18T03:53:51;8.95;;;3.28;;
25905;SDS011;13713;52.552;13.204;2023-02-18T03:56:17;13.50;;;3.75;;
25905;SDS011;13713;52.552;13.204;2023-02-18T03:58:45;11.35;;;3.20;;
25905;SDS011;13713;52.552;13.204;2023-02-18T04:01:11;9.38;;;3.08;;
25905;SDS011;13713;52.552;13.204;2023-02-18T04:03:37;10.57;;;3.17;;
25905;SDS011;13713;52.552;13.204;2023-02-18T04:06:02;11.32;;;3.83;;
25905;SDS011;13713;52.552;13.204;2023-02-18T04:08:28;10.35;;;3.60;;
25905;SDS011;13713;52.552;13.204;2023-02-18T04:10:54;8.77;;;2.75;;
25905;SDS011;13713;52.552;13.204;2023-02-18T04:13:20;8.93;;;3.00;;
25905;SDS011;13713;52.552;13.204;2023-02-18T04:15:47;8.18;;;2.80;;
25905;SDS011;13713;52.552;13.204;2023-02-18T04:18:14;9.43;;;3.28;;
25905;SDS011;13713;52.552;13.204;2023-02-18T04:20:40;8.30;;;3.05;;
25905;SDS011;13713;52.552;13.204;2023-02-18T04:23:06;9.43;;;3.13;;
25905;SDS011;13713;52.552;13.204;2023-02-18T04:25:31;10.70;;;3.03;;
25905;SDS011;13713;52.552;13.204;2023-02-18T04:27:57;11.27;;;3.38;;
25905;SDS011;13713;52.552;13.204;2023-02-18T04:30:24;10.23;;;3.20;;
25905;SDS011;13713;52.552;13.204;2023-02-18T04:32:50;10.18;;;2.92;;
25905;SDS011;13713;52.552;13.204;2023-02-18T04:35:15;9.32;;;2.92;;
25905;SDS011;13713;52.552;13.204;2023-02-18T04:37:41;8.45;;;2.80;;
25905;SDS011;13713;52.552;13.204;2023-02-18T04:40:07;10.07;;;3.28;;
25905;SDS011;13713;52.552;13.204;2023-02-18T04:42:33;8.15;;;2.75;;
25905;SDS011;13713;52.552;13.204;2023-02-18T04:44:59;9.13;;;2.85;;
25905;SDS011;13713;52.552;13.204;2023-02-18T04:47:25;9.02;;;3.28;;
25905;SDS011;13713;52.552;13.204;2023-02-18T04:49:51;10.25;;;3.10;;
25905;SDS011;13713;52.552;13.204;2023-02-18T04:52:17;8.00;;;2.97;;
25905;SDS011;13713;52.552;13.204;2023-02-18T04:54:42;9.77;;;3.22;;
25905;SDS011;13713;52.552;13.204;2023-02-18T04:57:09;8.43;;;2.67;;
25905;SDS011;13713;52.552;13.204;2023-02-18T04:59:34;10.02;;;2.63;;
25905;SDS011;13713;52.552;13.204;2023-02-18T05:02:00;8.43;;;2.72;;
25905;SDS011;13713;52.552;13.204;2023-02-18T05:04:26;7.47;;;2.72;;
25905;SDS011;13713;52.552;13.204;2023-02-18T05:06:51;8.88;;;2.60;;
25905;SDS011;13713;52.552;13.204;2023-02-18T05:09:17;8.55;;;2.88;;
25905;SDS011;13713;52.552;13.204;2023-02-18T05:11:43;10.40;;;3.22;;
25905;SDS011;13713;52.552;13.204;2023-02-18T05:14:10;7.65;;;3.17;;
25905;SDS011;13713;52.552;13.204;2023-02-18T05:16:35;8.48;;;2.97;;
25905;SDS011;13713;52.552;13.204;2023-02-18T05:19:01;8.93;;;3.00;;
25905;SDS011;13713;52.552;13.204;2023-02-18T05:21:27;8.73;;;2.75;;
25905;SDS011;13713;52.552;13.204;2023-02-18T05:23:53;7.18;;;2.63;;
25905;SDS011;13713;52.552;13.204;2023-02-18T05:26:18;7.18;;;2.38;;
25905;SDS011;13713;52.552;13.204;2023-02-18T05:28:44;8.98;;;2.90;;
25905;SDS011;13713;52.552;13.204;2023-02-18T05:31:10;9.98;;;3.25;;
25905;SDS011;13713;52.552;13.204;2023-02-18T05:33:35;9.50;;;3.15;;
25905;SDS011;13713;52.552;13.204;2023-02-18T05:36:01;7.82;;;2.70;;
25905;SDS011;13713;52.552;13.204;2023-02-18T05:38:27;10.48;;;3.10;;
25905;SDS011;13713;52.552;13.204;2023-02-18T05:40:54;6.55;;;2.33;;
25905;SDS011;13713;52.552;13.204;2023-02-18T05:43:20;11.43;;;3.28;;
25905;SDS011;13713;52.552;13.204;2023-02-18T05:45:46;6.82;;;2.38;;
25905;SDS011;13713;52.552;13.204;2023-02-18T05:48:11;8.30;;;2.55;;
25905;SDS011;13713;52.552;13.204;2023-02-18T05:50:37;10.90;;;3.00;;
25905;SDS011;13713;52.552;13.204;2023-02-18T05:53:03;8.77;;;2.97;;
25905;SDS011;13713;52.552;13.204;2023-02-18T05:55:29;9.35;;;2.63;;
25905;SDS011;13713;52.552;13.204;2023-02-18T05:57:55;9.77;;;3.05;;
25905;SDS011;13713;52.552;13.204;2023-02-18T06:00:21;6.53;;;2.42;;
25905;SDS011;13713;52.552;13.204;2023-02-18T06:02:47;9.70;;;3.00;;
25905;SDS011;13713;52.552;13.204;2023-02-18T06:05:12;6.90;;;2.35;;
25905;SDS011;13713;52.552;13.204;2023-02-18T06:07:38;9.77;;;2.58;;
25905;SDS011;13713;52.552;13.204;2023-02-18T06:10:04;7.43;;;2.15;;
25905;SDS011;13713;52.552;13.204;2023-02-18T06:12:30;6.22;;;2.28;;
25905;SDS011;13713;52.552;13.204;2023-02-18T06:14:56;10.27;;;2.58;;
25905;SDS011;13713;52.552;13.204;2023-02-18T06:17:22;7.97;;;2.50;;
25905;SDS011;13713;52.552;13.204;2023-02-18T06:19:48;6.70;;;2.40;;
25905;SDS011;13713;52.552;13.204;2023-02-18T06:22:14;7.10;;;2.30;;
25905;SDS011;13713;52.552;13.204;2023-02-18T06:24:40;8.63;;;2.30;;
25905;SDS011;13713;52.552;13.204;2023-02-18T06:27:06;9.77;;;2.50;;
25905;SDS011;13713;52.552;13.204;2023-02-18T06:29:31;9.05;;;2.63;;
25905;SDS011;13713;52.552;13.204;2023-02-18T06:31:57;7.18;;;2.60;;
25905;SDS011;13713;52.552;13.204;2023-02-18T06:34:24;9.27;;;2.20;;
25905;SDS011;13713;52.552;13.204;2023-02-18T06:36:50;5.70;;;2.42;;
25905;SDS011;13713;52.552;13.204;2023-02-18T06:39:16;6.50;;;2.10;;
25905;SDS011;13713;52.552;13.204;2023-02-18T06:41:42;6.55;;;2.03;;
25905;SDS011;13713;52.552;13.204;2023-02-18T06:44:08;9.55;;;2.55;;
25905;SDS011;13713;52.552;13.204;2023-02-18T06:46:33;6.95;;;2.38;;
25905;SDS011;13713;52.552;13.204;2023-02-18T06:48:59;8.93;;;1.90;;
25905;SDS011;13713;52.552;13.204;2023-02-18T06:51:25;7.43;;;2.45;;
25905;SDS011;13713;52.552;13.204;2023-02-18T06:53:50;7.43;;;2.53;;
25905;SDS011;13713;52.552;13.204;2023-02-18T06:56:16;11.48;;;2.78;;
25905;SDS011;13713;52.552;13.204;2023-02-18T06:58:42;7.97;;;2.05;;
25905;SDS011;13713;52.552;13.204;2023-02-18T07:01:08;8.43;;;2.50;;
25905;SDS011;13713;52.552;13.204;2023-02-18T07:03:33;7.28;;;2.50;;
25905;SDS011;13713;52.552;13.204;2023-02-18T07:05:59;6.88;;;1.92;;
25905;SDS011;13713;52.552;13.204;2023-02-18T07:08:25;6.88;;;2.20;;
25905;SDS011;13713;52.552;13.204;2023-02-18T07:10:51;5.45;;;1.98;;
25905;SDS011;13713;52.552;13.204;2023-02-18T07:13:16;7.32;;;2.00;;
25905;SDS011;13713;52.552;13.204;2023-02-18T07:15:42;6.72;;;2.30;;
25905;SDS011;13713;52.552;13.204;2023-02-18T07:18:08;7.40;;;2.17;;
25905;SDS011;13713;52.552;13.204;2023-02-18T07:20:33;7.13;;;2.17;;
25905;SDS011;13713;52.552;13.204;2023-02-18T07:22:59;4.90;;;1.80;;
25905;SDS011;13713;52.552;13.204;2023-02-18T07:25:25;7.05;;;2.40;;
25905;SDS011;13713;52.552;13.204;2023-02-18T07:27:51;6.28;;;2.63;;
25905;SDS011;13713;52.552;13.204;2023-02-18T07:30:17;7.03;;;2.38;;
25905;SDS011;13713;52.552;13.204;2023-02-18T07:32:44;6.72;;;2.47;;
25905;SDS011;13713;52.552;13.204;2023-02-18T07:35:10;8.73;;;2.45;;
25905;SDS011;13713;52.552;13.204;2023-02-18T07:37:38;6.57;;;2.28;;
25905;SDS011;13713;52.552;13.204;2023-02-18T07:40:05;5.22;;;1.80;;
25905;SDS011;13713;52.552;13.204;2023-02-18T07:42:31;10.48;;;2.05;;
25905;SDS011;13713;52.552;13.204;2023-02-18T07:44:57;6.90;;;1.95;;
25905;SDS011;13713;52.552;13.204;2023-02-18T07:47:23;6.70;;;1.98;;
25905;SDS011;13713;52.552;13.204;2023-02-18T07:49:49;6.35;;;2.30;;
25905;SDS011;13713;52.552;13.204;2023-02-18T07:52:14;7.75;;;2.13;;
25905;SDS011;13713;52.552;13.204;2023-02-18T07:54:40;6.13;;;2.40;;
25905;SDS011;13713;52.552;13.204;2023-02-18T07:57:06;9.10;;;2.28;;
25905;SDS011;13713;52.552;13.204;2023-02-18T07:59:32;5.47;;;2.08;;
25905;SDS011;13713;52.552;13.204;2023-02-18T08:01:58;7.10;;;1.95;;
25905;SDS011;13713;52.552;13.204;2023-02-18T08:04:24;9.15;;;2.13;;
25905;SDS011;13713;52.552;13.204;2023-02-18T08:06:49;6.68;;;1.85;;
25905;SDS011;13713;52.552;13.204;2023-02-18T08:09:15;6.07;;;2.35;;
25905;SDS011;13713;52.552;13.204;2023-02-18T08:11:42;6.57;;;2.08;;
25905;SDS011;13713;52.552;13.204;2023-02-18T08:14:08;6.75;;;2.30;;
25905;SDS011;13713;52.552;13.204;2023-02-18T08:16:34;7.05;;;2.17;;
25905;SDS011;13713;52.552;13.204;2023-02-18T08:19:02;6.07;;;2.08;;
25905;SDS011;13713;52.552;13.204;2023-02-18T08:21:28;5.90;;;1.90;;
25905;SDS011;13713;52.552;13.204;2023-02-18T08:23:53;6.60;;;1.63;;
25905;SDS011;13713;52.552;13.204;2023-02-18T08:26:19;5.85;;;1.88;;
25905;SDS011;13713;52.552;13.204;2023-02-18T08:28:46;9.15;;;2.30;;
25905;SDS011;13713;52.552;13.204;2023-02-18T08:31:16;6.40;;;1.95;;
25905;SDS011;13713;52.552;13.204;2023-02-18T08:33:44;8.70;;;2.13;;
25905;SDS011;13713;52.552;13.204;2023-02-18T08:36:09;7.72;;;2.00;;
25905;SDS011;13713;52.552;13.204;2023-02-18T08:38:35;4.78;;;1.75;;
25905;SDS011;13713;52.552;13.204;2023-02-18T08:41:01;4.22;;;1.90;;
25905;SDS011;13713;52.552;13.204;2023-02-18T08:43:28;6.38;;;2.22;;
25905;SDS011;13713;52.552;13.204;2023-02-18T08:45:55;4.93;;;1.73;;
25905;SDS011;13713;52.552;13.204;2023-02-18T08:48:22;6.47;;;1.95;;
25905;SDS011;13713;52.552;13.204;2023-02-18T08:50:48;5.20;;;1.83;;
25905;SDS011;13713;52.552;13.204;2023-02-18T08:53:14;7.22;;;2.38;;
25905;SDS011;13713;52.552;13.204;2023-02-18T08:55:40;5.50;;;1.80;;
25905;SDS011;13713;52.552;13.204;2023-02-18T08:58:06;4.32;;;1.70;;
25905;SDS011;13713;52.552;13.204;2023-02-18T09:00:32;6.68;;;1.98;;
25905;SDS011;13713;52.552;13.204;2023-02-18T09:02:58;5.35;;;1.77;;
25905;SDS011;13713;52.552;13.204;2023-02-18T09:05:24;4.60;;;1.73;;
25905;SDS011;13713;52.552;13.204;2023-02-18T09:07:49;3.97;;;1.55;;
25905;SDS011;13713;52.552;13.204;2023-02-18T09:10:15;5.63;;;1.67;;
25905;SDS011;13713;52.552;13.204;2023-02-18T09:12:41;7.30;;;2.05;;
25905;SDS011;13713;52.552;13.204;2023-02-18T09:15:07;4.32;;;1.35;;
25905;SDS011;13713;52.552;13.204;2023-02-18T09:17:33;6.47;;;1.73;;
25905;SDS011;13713;52.552;13.204;2023-02-18T09:19:59;4.72;;;1.67;;
25905;SDS011;13713;52.552;13.204;2023-02-18T09:22:25;5.38;;;1.70;;
25905;SDS011;13713;52.552;13.204;2023-02-18T09:24:50;5.45;;;1.95;;
25905;SDS011;13713;52.552;13.204;2023-02-18T09:27:16;5.20;;;1.73;;
25905;SDS011;13713;52.552;13.204;2023-02-18T09:29:42;5.88;;;1.60;;
25905;SDS011;13713;52.552;13.204;2023-02-18T09:32:08;4.15;;;1.55;;
25905;SDS011;13713;52.552;13.204;2023-02-18T09:34:36;5.70;;;1.77;;
25905;SDS011;13713;52.552;13.204;2023-02-18T09:37:02;6.88;;;1.90;;
25905;SDS011;13713;52.552;13.204;2023-02-18T09:39:28;6.25;;;1.48;;
25905;SDS011;13713;52.552;13.204;2023-02-18T09:41:54;4.95;;;1.65;;
25905;SDS011;13713;52.552;13.204;2023-02-18T09:44:28;4.20;;;1.55;;
25905;SDS011;13713;52.552;13.204;2023-02-18T09:50:20;4.88;;;1.85;;
25905;SDS011;13713;52.552;13.204;2023-02-18T09:52:46;5.55;;;1.65;;
25905;SDS011;13713;52.552;13.204;2023-02-18T09:57:54;4.93;;;1.70;;
25905;SDS011;13713;52.552;13.204;2023-02-18T10:00:32;5.22;;;1.73;;
25905;SDS011;13713;52.552;13.204;2023-02-18T10:05:32;5.83;;;1.83;;
25905;SDS011;13713;52.552;13.204;2023-02-18T10:08:03;5.85;;;1.88;;
25905;SDS011;13713;52.552;13.204;2023-02-18T10:10:36;11.10;;;2.00;;
25905;SDS011;13713;52.552;13.204;2023-02-18T10:13:22;6.03;;;1.95;;
25905;SDS011;13713;52.552;13.204;2023-02-18T10:15:51;5.68;;;1.75;;
25905;SDS011;13713;52.552;13.204;2023-02-18T10:18:39;5.57;;;1.70;;
25905;SDS011;13713;52.552;13.204;2023-02-18T10:21:13;4.70;;;1.63;;
25905;SDS011;13713;52.552;13.204;2023-02-18T10:23:46;5.75;;;1.63;;
25905;SDS011;13713;52.552;13.204;2023-02-18T10:26:26;4.82;;;1.67;;
25905;SDS011;13713;52.552;13.204;2023-02-18T10:28:54;5.13;;;1.60;;
25905;SDS011;13713;52.552;13.204;2023-02-18T10:31:23;5.30;;;1.75;;
25905;SDS011;13713;52.552;13.204;2023-02-18T10:36:35;5.40;;;1.90;;
25905;SDS011;13713;52.552;13.204;2023-02-18T10:39:13;5.38;;;1.70;;
25905;SDS011;13713;52.552;13.204;2023-02-18T10:48:01;5.53;;;1.75;;
25905;SDS011;13713;52.552;13.204;2023-02-18T10:50:33;4.75;;;1.80;;
25905;SDS011;13713;52.552;13.204;2023-02-18T10:53:07;5.95;;;1.73;;
25905;SDS011;13713;52.552;13.204;2023-02-18T10:55:44;8.73;;;2.25;;
25905;SDS011;13713;52.552;13.204;2023-02-18T10:58:46;4.28;;;1.70;;
25905;SDS011;13713;52.552;13.204;2023-02-18T11:01:14;4.32;;;1.73;;
25905;SDS011;13713;52.552;13.204;2023-02-18T11:03:44;3.53;;;1.60;;
25905;SDS011;13713;52.552;13.204;2023-02-18T11:08:53;6.95;;;1.80;;
25905;SDS011;13713;52.552;13.204;2023-02-18T11:11:33;5.65;;;1.60;;
25905;SDS011;13713;52.552;13.204;2023-02-18T11:14:03;6.43;;;1.65;;
25905;SDS011;13713;52.552;13.204;2023-02-18T11:16:41;4.57;;;1.67;;
25905;SDS011;13713;52.552;13.204;2023-02-18T11:22:05;5.25;;;1.65;;
25905;SDS011;13713;52.552;13.204;2023-02-18T11:24:43;7.18;;;1.65;;
25905;SDS011;13713;52.552;13.204;2023-02-18T11:32:44;6.13;;;2.00;;
25905;SDS011;13713;52.552;13.204;2023-02-18T11:35:20;4.68;;;1.77;;
25905;SDS011;13713;52.552;13.204;2023-02-18T11:37:48;4.55;;;1.88;;
25905;SDS011;13713;52.552;13.204;2023-02-18T11:40:21;7.93;;;1.85;;
25905;SDS011;13713;52.552;13.204;2023-02-18T11:42:50;6.75;;;1.88;;
25905;SDS011;13713;52.552;13.204;2023-02-18T11:45:30;5.85;;;2.13;;
25905;SDS011;13713;52.552;13.204;2023-02-18T11:47:59;5.30;;;2.13;;
25905;SDS011;13713;52.552;13.204;2023-02-18T11:50:28;7.55;;;1.80;;
25905;SDS011;13713;52.552;13.204;2023-02-18T11:52:56;6.65;;;1.85;;
25905;SDS011;13713;52.552;13.204;2023-02-18T11:55:24;8.15;;;2.00;;
25905;SDS011;13713;52.552;13.204;2023-02-18T12:16:18;11.45;;;2.20;;
25905;SDS011;13713;52.552;13.204;2023-02-18T12:27:17;11.45;;;2.20;;
25905;SDS011;13713;52.552;13.204;2023-02-18T12:43:26;15.93;;;2.47;;
25905;SDS011;13713;52.552;13.204;2023-02-18T12:54:22;10.15;;;2.33;;
25905;SDS011;13713;52.552;13.204;2023-02-18T13:08:15;13.23;;;2.45;;
25905;SDS011;13713;52.552;13.204;2023-02-18T13:10:58;8.13;;;2.30;;
25905;SDS011;13713;52.552;13.204;2023-02-18T13:13:36;9.45;;;2.63;;
25905;SDS011;13713;52.552;13.204;2023-02-18T13:16:10;7.38;;;2.65;;
25905;SDS011;13713;52.552;13.204;2023-02-18T13:18:43;11.02;;;2.67;;
25905;SDS011;13713;52.552;13.204;2023-02-18T13:21:25;8.02;;;3.03;;
25905;SDS011;13713;52.552;13.204;2023-02-18T13:24:00;8.88;;;2.25;;
25905;SDS011;13713;52.552;13.204;2023-02-18T13:26:30;8.00;;;2.28;;
25905;SDS011;13713;52.552;13.204;2023-02-18T13:34:29;6.75;;;2.40;;
25905;SDS011;13713;52.552;13.204;2023-02-18T13:39:54;8.52;;;2.47;;
25905;SDS011;13713;52.552;13.204;2023-02-18T13:48:02;5.27;;;2.40;;
25905;SDS011;13713;52.552;13.204;2023-02-18T13:50:47;6.97;;;2.28;;
25905;SDS011;13713;52.552;13.204;2023-02-18T13:53:14;5.57;;;2.67;;
25905;SDS011;13713;52.552;13.204;2023-02-18T13:58:24;6.68;;;2.30;;
25905;SDS011;13713;52.552;13.204;2023-02-18T14:03:31;7.93;;;2.83;;
25905;SDS011;13713;52.552;13.204;2023-02-18T14:06:00;7.10;;;2.40;;
25905;SDS011;13713;52.552;13.204;2023-02-18T14:08:36;6.28;;;2.78;;
25905;SDS011;13713;52.552;13.204;2023-02-18T14:16:05;7.82;;;2.40;;
25905;SDS011;13713;52.552;13.204;2023-02-18T14:21:05;5.22;;;2.30;;
25905;SDS011;13713;52.552;13.204;2023-02-18T14:26:22;6.03;;;2.42;;
25905;SDS011;13713;52.552;13.204;2023-02-18T14:29:00;4.95;;;2.45;;
25905;SDS011;13713;52.552;13.204;2023-02-18T14:37:06;6.05;;;2.10;;
25905;SDS011;13713;52.552;13.204;2023-02-18T14:45:17;4.50;;;2.33;;
25905;SDS011;13713;52.552;13.204;2023-02-18T14:50:17;5.30;;;2.22;;
25905;SDS011;13713;52.552;13.204;2023-02-18T14:52:46;6.13;;;2.60;;
25905;SDS011;13713;52.552;13.204;2023-02-18T14:58:05;5.03;;;2.50;;
25905;SDS011;13713;52.552;13.204;2023-02-18T15:00:50;6.50;;;2.42;;
25905;SDS011;13713;52.552;13.204;2023-02-18T15:03:17;4.57;;;2.38;;
25905;SDS011;13713;52.552;13.204;2023-02-18T15:05:44;6.15;;;2.28;;
25905;SDS011;13713;52.552;13.204;2023-02-18T15:08:28;3.97;;;2.38;;
25905;SDS011;13713;52.552;13.204;2023-02-18T15:11:04;4.47;;;2.30;;
25905;SDS011;13713;52.552;13.204;2023-02-18T15:13:32;4.90;;;2.20;;
25905;SDS011;13713;52.552;13.204;2023-02-18T15:16:05;5.05;;;2.45;;
25905;SDS011;13713;52.552;13.204;2023-02-18T15:18:33;3.72;;;2.08;;
25905;SDS011;13713;52.552;13.204;2023-02-18T15:21:02;4.93;;;2.25;;
25905;SDS011;13713;52.552;13.204;2023-02-18T15:23:30;3.97;;;2.03;;
25905;SDS011;13713;52.552;13.204;2023-02-18T15:25:59;5.43;;;2.28;;
25905;SDS011;13713;52.552;13.204;2023-02-18T15:28:29;5.53;;;2.58;;
25905;SDS011;13713;52.552;13.204;2023-02-18T15:31:00;5.93;;;2.53;;
25905;SDS011;13713;52.552;13.204;2023-02-18T15:33:27;3.75;;;2.10;;
25905;SDS011;13713;52.552;13.204;2023-02-18T15:36:03;3.47;;;2.33;;
25905;SDS011;13713;52.552;13.204;2023-02-18T15:38:35;3.45;;;2.20;;
25905;SDS011;13713;52.552;13.204;2023-02-18T15:41:07;5.10;;;2.03;;
25905;SDS011;13713;52.552;13.204;2023-02-18T15:44:00;3.85;;;2.08;;
25905;SDS011;13713;52.552;13.204;2023-02-18T15:46:29;3.00;;;1.88;;
25905;SDS011;13713;52.552;13.204;2023-02-18T15:48:56;3.65;;;2.30;;
25905;SDS011;13713;52.552;13.204;2023-02-18T15:51:29;4.32;;;2.42;;
25905;SDS011;13713;52.552;13.204;2023-02-18T15:53:57;3.80;;;2.35;;
25905;SDS011;13713;52.552;13.204;2023-02-18T15:56:31;3.00;;;2.05;;
25905;SDS011;13713;52.552;13.204;2023-02-18T16:01:53;3.83;;;2.17;;
25905;SDS011;13713;52.552;13.204;2023-02-18T16:04:39;3.25;;;2.13;;
25905;SDS011;13713;52.552;13.204;2023-02-18T16:09:49;3.30;;;1.67;;
25905;SDS011;13713;52.552;13.204;2023-02-18T16:12:30;6.00;;;2.25;;
25905;SDS011;13713;52.552;13.204;2023-02-18T16:14:56;5.20;;;2.22;;
25905;SDS011;13713;52.552;13.204;2023-02-18T16:17:24;3.20;;;1.90;;
25905;SDS011;13713;52.552;13.204;2023-02-18T16:19:53;5.32;;;1.75;;
25905;SDS011;13713;52.552;13.204;2023-02-18T16:24:59;3.25;;;2.00;;
25905;SDS011;13713;52.552;13.204;2023-02-18T16:27:32;4.30;;;2.15;;
25905;SDS011;13713;52.552;13.204;2023-02-18T16:32:46;3.95;;;2.17;;
25905;SDS011;13713;52.552;13.204;2023-02-18T16:35:13;4.55;;;2.03;;
25905;SDS011;13713;52.552;13.204;2023-02-18T16:37:40;3.72;;;2.05;;
25905;SDS011;13713;52.552;13.204;2023-02-18T16:42:57;3.65;;;1.95;;
25905;SDS011;13713;52.552;13.204;2023-02-18T16:45:37;2.83;;;1.50;;
25905;SDS011;13713;52.552;13.204;2023-02-18T16:48:05;4.47;;;2.10;;
25905;SDS011;13713;52.552;13.204;2023-02-18T16:50:38;3.30;;;2.00;;
25905;SDS011;13713;52.552;13.204;2023-02-18T16:53:04;5.80;;;2.20;;
25905;SDS011;13713;52.552;13.204;2023-02-18T16:55:30;3.22;;;1.70;;
25905;SDS011;13713;52.552;13.204;2023-02-18T16:57:55;3.15;;;1.98;;
25905;SDS011;13713;52.552;13.204;2023-02-18T17:00:21;3.03;;;1.90;;
25905;SDS011;13713;52.552;13.204;2023-02-18T17:02:48;3.22;;;1.90;;
25905;SDS011;13713;52.552;13.204;2023-02-18T17:05:20;3.70;;;2.00;;
25905;SDS011;13713;52.552;13.204;2023-02-18T17:07:48;2.65;;;1.70;;
25905;SDS011;13713;52.552;13.204;2023-02-18T17:10:14;4.00;;;2.00;;
25905;SDS011;13713;52.552;13.204;2023-02-18T17:12:40;2.72;;;1.58;;
25905;SDS011;13713;52.552;13.204;2023-02-18T17:15:14;2.25;;;1.48;;
25905;SDS011;13713;52.552;13.204;2023-02-18T17:17:47;2.38;;;1.58;;
25905;SDS011;13713;52.552;13.204;2023-02-18T17:20:13;3.58;;;1.55;;
25905;SDS011;13713;52.552;13.204;2023-02-18T17:22:40;3.28;;;1.85;;
25905;SDS011;13713;52.552;13.204;2023-02-18T17:25:10;3.25;;;1.98;;
25905;SDS011;13713;52.552;13.204;2023-02-18T17:27:39;5.45;;;1.90;;
25905;SDS011;13713;52.552;13.204;2023-02-18T17:30:05;4.60;;;2.28;;
25905;SDS011;13713;52.552;13.204;2023-02-18T17:32:31;2.85;;;1.73;;
25905;SDS011;13713;52.552;13.204;2023-02-18T17:34:56;2.40;;;1.52;;
25905;SDS011;13713;52.552;13.204;2023-02-18T17:37:22;2.95;;;1.65;;
25905;SDS011;13713;52.552;13.204;2023-02-18T17:39:48;2.42;;;1.67;;
25905;SDS011;13713;52.552;13.204;2023-02-18T17:42:13;2.75;;;1.60;;
25905;SDS011;13713;52.552;13.204;2023-02-18T17:44:39;3.00;;;1.73;;
25905;SDS011;13713;52.552;13.204;2023-02-18T17:47:05;4.65;;;1.75;;
25905;SDS011;13713;52.552;13.204;2023-02-18T17:49:31;2.40;;;1.35;;
25905;SDS011;13713;52.552;13.204;2023-02-18T17:51:56;2.45;;;1.50;;